sensor_id;sensor_type;location;lat;lon;timestamp;P1;durP1;ratioP1;P2;durP2;ratioP2
67896;SDS011;54698;48.428;9.964;2022-08-11T00:00:30;4.50;;;1.90;;
67896;SDS011;54698;48.428;9.964;2022-08-11T00:03:03;4.50;;;1.80;;
67896;SDS011;54698;48.428;9.964;2022-08-11T00:05:31;4.13;;;1.67;;
67896;SDS011;54698;48.428;9.964;2022-08-11T00:07:57;7.32;;;2.17;;
67896;SDS011;54698;48.428;9.964;2022-08-11T00:10:24;5.22;;;1.98;;
67896;SDS011;54698;48.428;9.964;2022-08-11T00:12:55;4.82;;;1.70;;
67896;SDS011;54698;48.428;9.964;2022-08-11T00:15:23;6.07;;;1.85;;
67896;SDS011;54698;48.428;9.964;2022-08-11T00:17:55;6.70;;;1.88;;
67896;SDS011;54698;48.428;9.964;2022-08-11T00:20:24;4.78;;;1.90;;
67896;SDS011;54698;48.428;9.964;2022-08-11T00:22:58;4.75;;;1.75;;
67896;SDS011;54698;48.428;9.964;2022-08-11T00:25:27;4.55;;;1.73;;
67896;SDS011;54698;48.428;9.964;2022-08-11T00:27:55;5.30;;;1.98;;
67896;SDS011;54698;48.428;9.964;2022-08-11T00:30:21;4.70;;;2.10;;
67896;SDS011;54698;48.428;9.964;2022-08-11T00:32:51;6.25;;;2.30;;
67896;SDS011;54698;48.428;9.964;2022-08-11T00:37:52;5.05;;;2.20;;
67896;SDS011;54698;48.428;9.964;2022-08-11T00:40:22;4.15;;;1.95;;
67896;SDS011;54698;48.428;9.964;2022-08-11T00:42:54;4.70;;;1.88;;
67896;SDS011;54698;48.428;9.964;2022-08-11T00:45:38;5.38;;;2.08;;
67896;SDS011;54698;48.428;9.964;2022-08-11T00:48:10;7.32;;;2.03;;
67896;SDS011;54698;48.428;9.964;2022-08-11T00:50:59;9.02;;;2.13;;
67896;SDS011;54698;48.428;9.964;2022-08-11T00:53:36;6.00;;;2.38;;
67896;SDS011;54698;48.428;9.964;2022-08-11T00:59:39;4.70;;;1.83;;
67896;SDS011;54698;48.428;9.964;2022-08-11T01:02:38;7.53;;;2.38;;
67896;SDS011;54698;48.428;9.964;2022-08-11T01:05:23;7.60;;;2.08;;
67896;SDS011;54698;48.428;9.964;2022-08-11T01:08:14;6.75;;;2.47;;
67896;SDS011;54698;48.428;9.964;2022-08-11T01:14:18;7.05;;;2.30;;
67896;SDS011;54698;48.428;9.964;2022-08-11T01:17:38;5.60;;;1.95;;
67896;SDS011;54698;48.428;9.964;2022-08-11T01:20:48;4.07;;;2.15;;
67896;SDS011;54698;48.428;9.964;2022-08-11T01:30:13;4.13;;;1.95;;
67896;SDS011;54698;48.428;9.964;2022-08-11T01:33:18;4.70;;;2.40;;
67896;SDS011;54698;48.428;9.964;2022-08-11T01:36:52;5.47;;;2.20;;
67896;SDS011;54698;48.428;9.964;2022-08-11T01:46:29;6.93;;;2.88;;
67896;SDS011;54698;48.428;9.964;2022-08-11T01:49:02;5.43;;;2.58;;
67896;SDS011;54698;48.428;9.964;2022-08-11T01:51:37;5.88;;;2.25;;
67896;SDS011;54698;48.428;9.964;2022-08-11T01:54:30;4.38;;;1.98;;
67896;SDS011;54698;48.428;9.964;2022-08-11T01:57:07;5.68;;;2.38;;
67896;SDS011;54698;48.428;9.964;2022-08-11T01:59:53;6.15;;;2.17;;
67896;SDS011;54698;48.428;9.964;2022-08-11T02:02:33;7.00;;;2.42;;
67896;SDS011;54698;48.428;9.964;2022-08-11T02:05:13;6.07;;;2.55;;
67896;SDS011;54698;48.428;9.964;2022-08-11T02:07:53;5.68;;;2.45;;
67896;SDS011;54698;48.428;9.964;2022-08-11T02:10:26;5.30;;;2.33;;
67896;SDS011;54698;48.428;9.964;2022-08-11T02:13:03;5.03;;;2.33;;
67896;SDS011;54698;48.428;9.964;2022-08-11T02:15:41;5.55;;;2.20;;
67896;SDS011;54698;48.428;9.964;2022-08-11T02:18:16;5.15;;;2.45;;
67896;SDS011;54698;48.428;9.964;2022-08-11T02:20:49;5.53;;;2.63;;
67896;SDS011;54698;48.428;9.964;2022-08-11T02:23:24;7.05;;;2.58;;
67896;SDS011;54698;48.428;9.964;2022-08-11T02:25:56;7.18;;;2.58;;
67896;SDS011;54698;48.428;9.964;2022-08-11T02:28:31;5.18;;;2.42;;
67896;SDS011;54698;48.428;9.964;2022-08-11T02:31:11;7.07;;;2.33;;
67896;SDS011;54698;48.428;9.964;2022-08-11T02:33:43;7.00;;;2.63;;
67896;SDS011;54698;48.428;9.964;2022-08-11T02:36:15;6.63;;;2.92;;
67896;SDS011;54698;48.428;9.964;2022-08-11T02:38:48;7.60;;;2.95;;
67896;SDS011;54698;48.428;9.964;2022-08-11T02:41:24;5.88;;;2.42;;
67896;SDS011;54698;48.428;9.964;2022-08-11T02:44:03;5.35;;;2.53;;
67896;SDS011;54698;48.428;9.964;2022-08-11T02:46:44;8.05;;;2.80;;
67896;SDS011;54698;48.428;9.964;2022-08-11T02:49:25;6.40;;;2.85;;
67896;SDS011;54698;48.428;9.964;2022-08-11T02:52:05;5.82;;;2.30;;
67896;SDS011;54698;48.428;9.964;2022-08-11T02:54:43;5.68;;;2.40;;
67896;SDS011;54698;48.428;9.964;2022-08-11T02:57:20;6.72;;;2.38;;
67896;SDS011;54698;48.428;9.964;2022-08-11T02:59:54;5.78;;;2.45;;
67896;SDS011;54698;48.428;9.964;2022-08-11T03:02:32;4.45;;;2.05;;
67896;SDS011;54698;48.428;9.964;2022-08-11T03:05:35;5.65;;;2.40;;
67896;SDS011;54698;48.428;9.964;2022-08-11T03:08:28;5.68;;;2.63;;
67896;SDS011;54698;48.428;9.964;2022-08-11T03:11:09;8.05;;;2.45;;
67896;SDS011;54698;48.428;9.964;2022-08-11T03:13:42;6.60;;;3.00;;
67896;SDS011;54698;48.428;9.964;2022-08-11T03:16:20;6.53;;;2.67;;
67896;SDS011;54698;48.428;9.964;2022-08-11T03:18:55;5.10;;;2.38;;
67896;SDS011;54698;48.428;9.964;2022-08-11T03:21:34;8.10;;;2.45;;
67896;SDS011;54698;48.428;9.964;2022-08-11T03:24:07;6.88;;;2.47;;
67896;SDS011;54698;48.428;9.964;2022-08-11T03:26:42;5.63;;;2.75;;
67896;SDS011;54698;48.428;9.964;2022-08-11T03:29:22;6.18;;;2.70;;
67896;SDS011;54698;48.428;9.964;2022-08-11T03:31:58;7.18;;;2.45;;
67896;SDS011;54698;48.428;9.964;2022-08-11T03:34:28;8.13;;;3.45;;
67896;SDS011;54698;48.428;9.964;2022-08-11T03:40:02;7.07;;;3.08;;
67896;SDS011;54698;48.428;9.964;2022-08-11T03:42:42;7.80;;;2.75;;
67896;SDS011;54698;48.428;9.964;2022-08-11T03:45:16;6.00;;;3.05;;
67896;SDS011;54698;48.428;9.964;2022-08-11T03:47:56;7.13;;;3.47;;
67896;SDS011;54698;48.428;9.964;2022-08-11T03:50:50;7.10;;;2.90;;
67896;SDS011;54698;48.428;9.964;2022-08-11T03:53:27;6.60;;;2.58;;
67896;SDS011;54698;48.428;9.964;2022-08-11T03:56:19;5.47;;;2.58;;
67896;SDS011;54698;48.428;9.964;2022-08-11T03:59:32;5.90;;;2.63;;
67896;SDS011;54698;48.428;9.964;2022-08-11T04:02:48;7.40;;;2.83;;
67896;SDS011;54698;48.428;9.964;2022-08-11T04:06:12;6.53;;;2.60;;
67896;SDS011;54698;48.428;9.964;2022-08-11T04:12:46;5.47;;;2.42;;
67896;SDS011;54698;48.428;9.964;2022-08-11T04:15:59;5.68;;;2.53;;
67896;SDS011;54698;48.428;9.964;2022-08-11T04:18:45;6.20;;;3.35;;
67896;SDS011;54698;48.428;9.964;2022-08-11T04:21:50;5.60;;;2.38;;
67896;SDS011;54698;48.428;9.964;2022-08-11T04:24:53;7.22;;;3.00;;
67896;SDS011;54698;48.428;9.964;2022-08-11T04:31:07;7.82;;;2.95;;
67896;SDS011;54698;48.428;9.964;2022-08-11T04:37:07;7.65;;;2.60;;
67896;SDS011;54698;48.428;9.964;2022-08-11T04:40:11;6.07;;;2.95;;
67896;SDS011;54698;48.428;9.964;2022-08-11T04:46:29;5.68;;;2.80;;
67896;SDS011;54698;48.428;9.964;2022-08-11T04:52:35;7.07;;;2.22;;
67896;SDS011;54698;48.428;9.964;2022-08-11T04:55:41;7.25;;;2.70;;
67896;SDS011;54698;48.428;9.964;2022-08-11T04:58:34;7.15;;;2.85;;
67896;SDS011;54698;48.428;9.964;2022-08-11T05:01:23;5.45;;;2.63;;
67896;SDS011;54698;48.428;9.964;2022-08-11T05:04:13;5.78;;;2.83;;
67896;SDS011;54698;48.428;9.964;2022-08-11T05:10:53;6.68;;;3.00;;
67896;SDS011;54698;48.428;9.964;2022-08-11T05:13:32;6.57;;;3.10;;
67896;SDS011;54698;48.428;9.964;2022-08-11T05:16:06;7.70;;;2.97;;
67896;SDS011;54698;48.428;9.964;2022-08-11T05:18:36;8.82;;;2.90;;
67896;SDS011;54698;48.428;9.964;2022-08-11T05:21:12;5.07;;;2.65;;
67896;SDS011;54698;48.428;9.964;2022-08-11T05:23:43;5.70;;;2.75;;
67896;SDS011;54698;48.428;9.964;2022-08-11T05:26:15;4.90;;;2.22;;
67896;SDS011;54698;48.428;9.964;2022-08-11T05:28:45;7.40;;;3.33;;
67896;SDS011;54698;48.428;9.964;2022-08-11T05:31:18;5.80;;;2.55;;
67896;SDS011;54698;48.428;9.964;2022-08-11T05:33:51;6.20;;;2.65;;
67896;SDS011;54698;48.428;9.964;2022-08-11T05:36:24;5.80;;;2.40;;
67896;SDS011;54698;48.428;9.964;2022-08-11T05:38:56;6.60;;;2.92;;
67896;SDS011;54698;48.428;9.964;2022-08-11T05:41:27;8.75;;;3.03;;
67896;SDS011;54698;48.428;9.964;2022-08-11T05:43:56;8.95;;;2.70;;
67896;SDS011;54698;48.428;9.964;2022-08-11T05:46:25;5.85;;;2.65;;
67896;SDS011;54698;48.428;9.964;2022-08-11T05:48:53;8.75;;;3.00;;
67896;SDS011;54698;48.428;9.964;2022-08-11T05:51:19;6.85;;;2.72;;
67896;SDS011;54698;48.428;9.964;2022-08-11T05:53:48;7.45;;;2.92;;
67896;SDS011;54698;48.428;9.964;2022-08-11T05:56:16;6.63;;;2.90;;
67896;SDS011;54698;48.428;9.964;2022-08-11T05:58:43;6.45;;;2.55;;
67896;SDS011;54698;48.428;9.964;2022-08-11T06:01:19;6.78;;;3.30;;
67896;SDS011;54698;48.428;9.964;2022-08-11T06:03:48;7.03;;;2.35;;
67896;SDS011;54698;48.428;9.964;2022-08-11T06:06:18;6.45;;;2.78;;
67896;SDS011;54698;48.428;9.964;2022-08-11T06:08:44;8.32;;;3.25;;
67896;SDS011;54698;48.428;9.964;2022-08-11T06:11:11;6.80;;;2.92;;
67896;SDS011;54698;48.428;9.964;2022-08-11T06:13:40;8.13;;;3.40;;
67896;SDS011;54698;48.428;9.964;2022-08-11T06:16:09;6.47;;;3.20;;
67896;SDS011;54698;48.428;9.964;2022-08-11T06:18:37;6.43;;;2.80;;
67896;SDS011;54698;48.428;9.964;2022-08-11T06:21:07;6.85;;;3.20;;
67896;SDS011;54698;48.428;9.964;2022-08-11T06:23:36;8.55;;;3.00;;
67896;SDS011;54698;48.428;9.964;2022-08-11T06:26:05;6.43;;;3.22;;
67896;SDS011;54698;48.428;9.964;2022-08-11T06:28:34;7.07;;;3.10;;
67896;SDS011;54698;48.428;9.964;2022-08-11T06:31:09;5.90;;;2.67;;
67896;SDS011;54698;48.428;9.964;2022-08-11T06:33:37;6.90;;;2.88;;
67896;SDS011;54698;48.428;9.964;2022-08-11T06:36:21;5.93;;;3.20;;
67896;SDS011;54698;48.428;9.964;2022-08-11T06:38:59;5.20;;;2.60;;
67896;SDS011;54698;48.428;9.964;2022-08-11T06:41:43;6.72;;;2.75;;
67896;SDS011;54698;48.428;9.964;2022-08-11T06:44:14;6.88;;;3.45;;
67896;SDS011;54698;48.428;9.964;2022-08-11T06:46:49;8.35;;;3.10;;
67896;SDS011;54698;48.428;9.964;2022-08-11T06:49:17;7.43;;;2.63;;
67896;SDS011;54698;48.428;9.964;2022-08-11T06:51:46;9.55;;;2.80;;
67896;SDS011;54698;48.428;9.964;2022-08-11T06:54:13;8.00;;;3.45;;
67896;SDS011;54698;48.428;9.964;2022-08-11T06:56:39;8.32;;;2.75;;
67896;SDS011;54698;48.428;9.964;2022-08-11T06:59:06;6.28;;;3.42;;
67896;SDS011;54698;48.428;9.964;2022-08-11T07:01:37;10.95;;;3.67;;
67896;SDS011;54698;48.428;9.964;2022-08-11T07:04:10;5.55;;;2.63;;
67896;SDS011;54698;48.428;9.964;2022-08-11T07:06:42;6.03;;;2.33;;
67896;SDS011;54698;48.428;9.964;2022-08-11T07:09:27;6.20;;;2.70;;
67896;SDS011;54698;48.428;9.964;2022-08-11T07:12:18;6.03;;;3.13;;
67896;SDS011;54698;48.428;9.964;2022-08-11T07:15:02;6.38;;;2.97;;
67896;SDS011;54698;48.428;9.964;2022-08-11T07:17:34;8.38;;;2.90;;
67896;SDS011;54698;48.428;9.964;2022-08-11T07:20:06;12.10;;;3.20;;
67896;SDS011;54698;48.428;9.964;2022-08-11T07:22:35;5.57;;;2.53;;
67896;SDS011;54698;48.428;9.964;2022-08-11T07:25:05;6.32;;;2.45;;
67896;SDS011;54698;48.428;9.964;2022-08-11T07:27:39;7.75;;;2.78;;
67896;SDS011;54698;48.428;9.964;2022-08-11T07:30:09;8.90;;;4.30;;
67896;SDS011;54698;48.428;9.964;2022-08-11T07:32:36;5.85;;;2.63;;
67896;SDS011;54698;48.428;9.964;2022-08-11T07:35:15;7.45;;;3.10;;
67896;SDS011;54698;48.428;9.964;2022-08-11T07:37:46;6.35;;;2.95;;
67896;SDS011;54698;48.428;9.964;2022-08-11T07:40:20;7.07;;;2.73;;
67896;SDS011;54698;48.428;9.964;2022-08-11T07:42:47;7.28;;;2.72;;
67896;SDS011;54698;48.428;9.964;2022-08-11T07:45:14;7.93;;;3.00;;
67896;SDS011;54698;48.428;9.964;2022-08-11T07:47:40;6.15;;;2.63;;
67896;SDS011;54698;48.428;9.964;2022-08-11T07:50:07;7.35;;;3.03;;
67896;SDS011;54698;48.428;9.964;2022-08-11T07:52:34;5.88;;;2.75;;
67896;SDS011;54698;48.428;9.964;2022-08-11T07:55:02;6.95;;;2.92;;
67896;SDS011;54698;48.428;9.964;2022-08-11T07:57:32;5.97;;;2.53;;
67896;SDS011;54698;48.428;9.964;2022-08-11T07:59:59;7.00;;;2.92;;
67896;SDS011;54698;48.428;9.964;2022-08-11T08:02:25;9.65;;;3.20;;
67896;SDS011;54698;48.428;9.964;2022-08-11T08:04:51;7.72;;;3.20;;
67896;SDS011;54698;48.428;9.964;2022-08-11T08:07:17;6.38;;;2.70;;
67896;SDS011;54698;48.428;9.964;2022-08-11T08:09:45;7.25;;;3.05;;
67896;SDS011;54698;48.428;9.964;2022-08-11T08:12:12;5.45;;;2.40;;
67896;SDS011;54698;48.428;9.964;2022-08-11T08:14:41;6.68;;;3.00;;
67896;SDS011;54698;48.428;9.964;2022-08-11T08:17:07;9.07;;;2.83;;
67896;SDS011;54698;48.428;9.964;2022-08-11T08:19:33;9.93;;;2.80;;
67896;SDS011;54698;48.428;9.964;2022-08-11T08:21:59;8.88;;;2.55;;
67896;SDS011;54698;48.428;9.964;2022-08-11T08:24:26;6.00;;;2.47;;
67896;SDS011;54698;48.428;9.964;2022-08-11T08:26:53;8.13;;;2.28;;
67896;SDS011;54698;48.428;9.964;2022-08-11T08:29:19;6.93;;;2.22;;
67896;SDS011;54698;48.428;9.964;2022-08-11T08:31:48;7.07;;;3.20;;
67896;SDS011;54698;48.428;9.964;2022-08-11T08:34:15;6.30;;;2.38;;
67896;SDS011;54698;48.428;9.964;2022-08-11T08:36:42;7.88;;;2.67;;
67896;SDS011;54698;48.428;9.964;2022-08-11T08:39:11;5.43;;;2.42;;
67896;SDS011;54698;48.428;9.964;2022-08-11T08:41:38;8.93;;;2.25;;
67896;SDS011;54698;48.428;9.964;2022-08-11T08:44:08;6.13;;;2.90;;
67896;SDS011;54698;48.428;9.964;2022-08-11T08:46:45;5.85;;;2.58;;
67896;SDS011;54698;48.428;9.964;2022-08-11T08:49:21;7.75;;;2.38;;
67896;SDS011;54698;48.428;9.964;2022-08-11T08:51:51;6.30;;;2.40;;
67896;SDS011;54698;48.428;9.964;2022-08-11T08:54:24;5.55;;;2.25;;
67896;SDS011;54698;48.428;9.964;2022-08-11T08:56:54;11.18;;;3.35;;
67896;SDS011;54698;48.428;9.964;2022-08-11T08:59:21;6.65;;;2.45;;
67896;SDS011;54698;48.428;9.964;2022-08-11T09:01:54;5.68;;;1.83;;
67896;SDS011;54698;48.428;9.964;2022-08-11T09:04:22;6.82;;;2.20;;
67896;SDS011;54698;48.428;9.964;2022-08-11T09:06:49;11.73;;;2.47;;
67896;SDS011;54698;48.428;9.964;2022-08-11T09:09:15;6.07;;;2.22;;
67896;SDS011;54698;48.428;9.964;2022-08-11T09:11:42;4.63;;;2.13;;
67896;SDS011;54698;48.428;9.964;2022-08-11T09:14:09;6.93;;;1.92;;
67896;SDS011;54698;48.428;9.964;2022-08-11T09:16:35;5.25;;;2.40;;
67896;SDS011;54698;48.428;9.964;2022-08-11T09:19:04;5.68;;;2.15;;
67896;SDS011;54698;48.428;9.964;2022-08-11T09:21:32;6.75;;;1.83;;
67896;SDS011;54698;48.428;9.964;2022-08-11T09:23:58;6.03;;;1.98;;
67896;SDS011;54698;48.428;9.964;2022-08-11T09:26:25;5.30;;;1.73;;
67896;SDS011;54698;48.428;9.964;2022-08-11T09:28:51;6.00;;;2.50;;
67896;SDS011;54698;48.428;9.964;2022-08-11T09:31:17;5.40;;;2.75;;
67896;SDS011;54698;48.428;9.964;2022-08-11T09:33:45;5.45;;;2.00;;
67896;SDS011;54698;48.428;9.964;2022-08-11T09:36:13;6.18;;;2.10;;
67896;SDS011;54698;48.428;9.964;2022-08-11T09:38:38;5.25;;;2.15;;
67896;SDS011;54698;48.428;9.964;2022-08-11T09:41:07;5.75;;;1.98;;
67896;SDS011;54698;48.428;9.964;2022-08-11T09:43:34;5.82;;;2.05;;
67896;SDS011;54698;48.428;9.964;2022-08-11T09:46:04;4.68;;;1.67;;
67896;SDS011;54698;48.428;9.964;2022-08-11T09:48:34;3.78;;;1.38;;
67896;SDS011;54698;48.428;9.964;2022-08-11T09:51:04;9.57;;;1.92;;
67896;SDS011;54698;48.428;9.964;2022-08-11T09:53:34;5.20;;;1.65;;
67896;SDS011;54698;48.428;9.964;2022-08-11T09:56:02;5.60;;;2.00;;
67896;SDS011;54698;48.428;9.964;2022-08-11T09:58:29;5.18;;;1.80;;
67896;SDS011;54698;48.428;9.964;2022-08-11T10:00:55;4.32;;;2.00;;
67896;SDS011;54698;48.428;9.964;2022-08-11T10:03:25;4.10;;;1.92;;
67896;SDS011;54698;48.428;9.964;2022-08-11T10:05:52;9.00;;;1.88;;
67896;SDS011;54698;48.428;9.964;2022-08-11T10:08:25;5.13;;;1.63;;
67896;SDS011;54698;48.428;9.964;2022-08-11T10:10:55;3.63;;;1.58;;
67896;SDS011;54698;48.428;9.964;2022-08-11T10:13:21;5.28;;;1.98;;
67896;SDS011;54698;48.428;9.964;2022-08-11T10:15:55;6.05;;;1.67;;
67896;SDS011;54698;48.428;9.964;2022-08-11T10:18:28;4.20;;;1.77;;
67896;SDS011;54698;48.428;9.964;2022-08-11T10:20:58;8.65;;;2.00;;
67896;SDS011;54698;48.428;9.964;2022-08-11T10:23:28;6.68;;;1.58;;
67896;SDS011;54698;48.428;9.964;2022-08-11T10:25:58;6.78;;;2.00;;
67896;SDS011;54698;48.428;9.964;2022-08-11T10:28:24;5.18;;;1.77;;
67896;SDS011;54698;48.428;9.964;2022-08-11T10:30:50;5.32;;;1.83;;
67896;SDS011;54698;48.428;9.964;2022-08-11T10:33:17;5.07;;;1.90;;
67896;SDS011;54698;48.428;9.964;2022-08-11T10:35:44;4.13;;;1.60;;
67896;SDS011;54698;48.428;9.964;2022-08-11T10:38:11;6.28;;;1.90;;
67896;SDS011;54698;48.428;9.964;2022-08-11T10:40:38;5.10;;;1.90;;
67896;SDS011;54698;48.428;9.964;2022-08-11T10:43:07;4.47;;;1.70;;
67896;SDS011;54698;48.428;9.964;2022-08-11T10:45:36;7.70;;;2.65;;
67896;SDS011;54698;48.428;9.964;2022-08-11T10:48:04;4.32;;;1.45;;
67896;SDS011;54698;48.428;9.964;2022-08-11T10:50:32;5.18;;;1.98;;
67896;SDS011;54698;48.428;9.964;2022-08-11T10:52:58;6.75;;;2.65;;
67896;SDS011;54698;48.428;9.964;2022-08-11T10:55:25;11.73;;;1.90;;
67896;SDS011;54698;48.428;9.964;2022-08-11T10:57:52;4.38;;;1.48;;
67896;SDS011;54698;48.428;9.964;2022-08-11T11:00:19;7.80;;;1.83;;
67896;SDS011;54698;48.428;9.964;2022-08-11T11:02:45;5.45;;;1.80;;
67896;SDS011;54698;48.428;9.964;2022-08-11T11:05:13;5.75;;;1.63;;
67896;SDS011;54698;48.428;9.964;2022-08-11T11:07:49;5.68;;;1.83;;
67896;SDS011;54698;48.428;9.964;2022-08-11T11:10:22;5.20;;;1.70;;
67896;SDS011;54698;48.428;9.964;2022-08-11T11:12:50;5.85;;;1.88;;
67896;SDS011;54698;48.428;9.964;2022-08-11T11:15:21;4.30;;;1.70;;
67896;SDS011;54698;48.428;9.964;2022-08-11T11:17:50;4.65;;;2.03;;
67896;SDS011;54698;48.428;9.964;2022-08-11T11:20:21;5.50;;;1.50;;
67896;SDS011;54698;48.428;9.964;2022-08-11T11:22:50;3.88;;;1.55;;
67896;SDS011;54698;48.428;9.964;2022-08-11T11:25:21;8.45;;;2.17;;
67896;SDS011;54698;48.428;9.964;2022-08-11T11:28:08;5.20;;;1.67;;
67896;SDS011;54698;48.428;9.964;2022-08-11T11:30:55;4.38;;;1.65;;
67896;SDS011;54698;48.428;9.964;2022-08-11T11:33:38;5.25;;;1.70;;
67896;SDS011;54698;48.428;9.964;2022-08-11T11:36:44;4.65;;;1.92;;
67896;SDS011;54698;48.428;9.964;2022-08-11T11:39:12;4.80;;;1.92;;
67896;SDS011;54698;48.428;9.964;2022-08-11T11:41:43;4.80;;;1.58;;
67896;SDS011;54698;48.428;9.964;2022-08-11T11:44:10;4.18;;;1.52;;
67896;SDS011;54698;48.428;9.964;2022-08-11T11:46:39;4.18;;;1.25;;
67896;SDS011;54698;48.428;9.964;2022-08-11T11:49:05;4.95;;;1.60;;
67896;SDS011;54698;48.428;9.964;2022-08-11T11:51:32;3.58;;;1.50;;
67896;SDS011;54698;48.428;9.964;2022-08-11T11:53:58;8.77;;;2.53;;
67896;SDS011;54698;48.428;9.964;2022-08-11T11:56:25;4.55;;;1.50;;
67896;SDS011;54698;48.428;9.964;2022-08-11T11:58:51;7.20;;;1.55;;
67896;SDS011;54698;48.428;9.964;2022-08-11T12:01:18;3.88;;;1.60;;
67896;SDS011;54698;48.428;9.964;2022-08-11T12:03:46;4.65;;;1.33;;
67896;SDS011;54698;48.428;9.964;2022-08-11T12:06:16;4.22;;;1.67;;
67896;SDS011;54698;48.428;9.964;2022-08-11T12:08:44;3.95;;;1.33;;
67896;SDS011;54698;48.428;9.964;2022-08-11T12:11:14;4.43;;;1.50;;
67896;SDS011;54698;48.428;9.964;2022-08-11T12:13:41;4.22;;;1.50;;
67896;SDS011;54698;48.428;9.964;2022-08-11T12:16:12;4.65;;;1.50;;
67896;SDS011;54698;48.428;9.964;2022-08-11T12:18:40;5.70;;;1.60;;
67896;SDS011;54698;48.428;9.964;2022-08-11T12:21:11;7.00;;;1.48;;
67896;SDS011;54698;48.428;9.964;2022-08-11T12:23:41;6.30;;;1.98;;
67896;SDS011;54698;48.428;9.964;2022-08-11T12:26:11;4.90;;;2.10;;
67896;SDS011;54698;48.428;9.964;2022-08-11T12:28:38;3.42;;;1.33;;
67896;SDS011;54698;48.428;9.964;2022-08-11T12:31:04;4.15;;;1.50;;
67896;SDS011;54698;48.428;9.964;2022-08-11T12:33:31;3.97;;;1.30;;
67896;SDS011;54698;48.428;9.964;2022-08-11T12:35:57;4.85;;;1.45;;
67896;SDS011;54698;48.428;9.964;2022-08-11T12:38:26;6.05;;;1.70;;
67896;SDS011;54698;48.428;9.964;2022-08-11T12:40:52;5.75;;;1.42;;
67896;SDS011;54698;48.428;9.964;2022-08-11T12:43:20;5.35;;;1.50;;
67896;SDS011;54698;48.428;9.964;2022-08-11T12:45:48;3.47;;;1.30;;
67896;SDS011;54698;48.428;9.964;2022-08-11T12:48:19;4.07;;;1.40;;
67896;SDS011;54698;48.428;9.964;2022-08-11T12:50:46;6.50;;;1.20;;
67896;SDS011;54698;48.428;9.964;2022-08-11T12:53:18;5.05;;;1.25;;
67896;SDS011;54698;48.428;9.964;2022-08-11T12:55:50;4.40;;;1.50;;
67896;SDS011;54698;48.428;9.964;2022-08-11T12:58:19;5.30;;;1.27;;
67896;SDS011;54698;48.428;9.964;2022-08-11T13:00:45;4.80;;;1.77;;
67896;SDS011;54698;48.428;9.964;2022-08-11T13:03:12;4.65;;;1.23;;
67896;SDS011;54698;48.428;9.964;2022-08-11T13:05:39;4.03;;;1.17;;
67896;SDS011;54698;48.428;9.964;2022-08-11T13:08:06;5.60;;;1.20;;
67896;SDS011;54698;48.428;9.964;2022-08-11T13:10:33;5.82;;;1.30;;
67896;SDS011;54698;48.428;9.964;2022-08-11T13:13:03;6.50;;;1.52;;
67896;SDS011;54698;48.428;9.964;2022-08-11T13:15:30;4.47;;;1.40;;
67896;SDS011;54698;48.428;9.964;2022-08-11T13:17:57;3.83;;;1.27;;
67896;SDS011;54698;48.428;9.964;2022-08-11T13:20:24;5.68;;;1.45;;
67896;SDS011;54698;48.428;9.964;2022-08-11T13:22:52;3.28;;;1.20;;
67896;SDS011;54698;48.428;9.964;2022-08-11T13:25:20;4.28;;;1.30;;
67896;SDS011;54698;48.428;9.964;2022-08-11T13:27:49;3.80;;;1.27;;
67896;SDS011;54698;48.428;9.964;2022-08-11T13:30:18;3.90;;;1.52;;
67896;SDS011;54698;48.428;9.964;2022-08-11T13:32:49;6.57;;;1.17;;
67896;SDS011;54698;48.428;9.964;2022-08-11T13:35:16;4.97;;;1.20;;
67896;SDS011;54698;48.428;9.964;2022-08-11T13:37:44;4.30;;;1.75;;
67896;SDS011;54698;48.428;9.964;2022-08-11T13:40:11;5.45;;;1.15;;
67896;SDS011;54698;48.428;9.964;2022-08-11T13:42:40;3.45;;;1.13;;
67896;SDS011;54698;48.428;9.964;2022-08-11T13:45:08;2.95;;;1.10;;
67896;SDS011;54698;48.428;9.964;2022-08-11T13:47:36;3.70;;;1.20;;
67896;SDS011;54698;48.428;9.964;2022-08-11T13:50:04;26.98;;;2.72;;
67896;SDS011;54698;48.428;9.964;2022-08-11T13:52:31;4.03;;;1.38;;
67896;SDS011;54698;48.428;9.964;2022-08-11T13:54:58;6.88;;;1.27;;
67896;SDS011;54698;48.428;9.964;2022-08-11T13:57:25;3.90;;;1.65;;
67896;SDS011;54698;48.428;9.964;2022-08-11T13:59:54;4.97;;;1.40;;
67896;SDS011;54698;48.428;9.964;2022-08-11T14:02:22;3.55;;;1.15;;
67896;SDS011;54698;48.428;9.964;2022-08-11T14:04:54;3.03;;;1.20;;
67896;SDS011;54698;48.428;9.964;2022-08-11T14:07:22;4.40;;;1.50;;
67896;SDS011;54698;48.428;9.964;2022-08-11T14:09:54;4.80;;;1.50;;
67896;SDS011;54698;48.428;9.964;2022-08-11T14:12:23;2.30;;;1.00;;
67896;SDS011;54698;48.428;9.964;2022-08-11T14:14:51;2.97;;;1.20;;
67896;SDS011;54698;48.428;9.964;2022-08-11T14:17:24;3.33;;;1.00;;
67896;SDS011;54698;48.428;9.964;2022-08-11T14:19:51;6.50;;;1.45;;
67896;SDS011;54698;48.428;9.964;2022-08-11T14:22:19;5.40;;;1.17;;
67896;SDS011;54698;48.428;9.964;2022-08-11T14:24:45;3.20;;;1.00;;
67896;SDS011;54698;48.428;9.964;2022-08-11T14:27:12;4.38;;;1.30;;
67896;SDS011;54698;48.428;9.964;2022-08-11T14:29:40;7.30;;;1.60;;
67896;SDS011;54698;48.428;9.964;2022-08-11T14:32:07;4.65;;;1.40;;
67896;SDS011;54698;48.428;9.964;2022-08-11T14:34:39;3.80;;;1.13;;
67896;SDS011;54698;48.428;9.964;2022-08-11T14:37:14;4.00;;;1.10;;
67896;SDS011;54698;48.428;9.964;2022-08-11T14:39:50;8.15;;;2.72;;
67896;SDS011;54698;48.428;9.964;2022-08-11T14:42:19;3.53;;;1.05;;
67896;SDS011;54698;48.428;9.964;2022-08-11T14:44:46;4.25;;;1.80;;
67896;SDS011;54698;48.428;9.964;2022-08-11T14:47:15;4.63;;;1.10;;
67896;SDS011;54698;48.428;9.964;2022-08-11T14:49:42;4.10;;;1.05;;
67896;SDS011;54698;48.428;9.964;2022-08-11T14:52:11;4.55;;;1.23;;
67896;SDS011;54698;48.428;9.964;2022-08-11T14:54:40;3.53;;;1.10;;
67896;SDS011;54698;48.428;9.964;2022-08-11T14:57:09;3.28;;;1.20;;
67896;SDS011;54698;48.428;9.964;2022-08-11T14:59:36;4.10;;;1.30;;
67896;SDS011;54698;48.428;9.964;2022-08-11T15:02:03;4.65;;;1.10;;
67896;SDS011;54698;48.428;9.964;2022-08-11T15:04:30;3.15;;;1.25;;
67896;SDS011;54698;48.428;9.964;2022-08-11T15:06:56;5.13;;;1.50;;
67896;SDS011;54698;48.428;9.964;2022-08-11T15:09:24;6.10;;;1.48;;
67896;SDS011;54698;48.428;9.964;2022-08-11T15:11:50;4.88;;;1.48;;
67896;SDS011;54698;48.428;9.964;2022-08-11T15:14:17;4.20;;;1.20;;
67896;SDS011;54698;48.428;9.964;2022-08-11T15:16:43;3.20;;;1.08;;
67896;SDS011;54698;48.428;9.964;2022-08-11T15:19:11;2.50;;;0.93;;
67896;SDS011;54698;48.428;9.964;2022-08-11T15:21:38;4.85;;;1.27;;
67896;SDS011;54698;48.428;9.964;2022-08-11T15:24:04;6.60;;;1.25;;
67896;SDS011;54698;48.428;9.964;2022-08-11T15:26:32;6.55;;;2.00;;
67896;SDS011;54698;48.428;9.964;2022-08-11T15:29:02;6.63;;;1.65;;
67896;SDS011;54698;48.428;9.964;2022-08-11T15:31:28;4.25;;;1.23;;
67896;SDS011;54698;48.428;9.964;2022-08-11T15:33:56;4.60;;;1.10;;
67896;SDS011;54698;48.428;9.964;2022-08-11T15:36:28;6.75;;;1.40;;
67896;SDS011;54698;48.428;9.964;2022-08-11T15:38:56;5.40;;;1.13;;
67896;SDS011;54698;48.428;9.964;2022-08-11T15:41:27;5.38;;;1.10;;
67896;SDS011;54698;48.428;9.964;2022-08-11T15:43:59;4.88;;;1.40;;
67896;SDS011;54698;48.428;9.964;2022-08-11T15:46:30;5.07;;;1.20;;
67896;SDS011;54698;48.428;9.964;2022-08-11T15:48:58;4.60;;;1.25;;
67896;SDS011;54698;48.428;9.964;2022-08-11T15:51:29;2.22;;;0.98;;
67896;SDS011;54698;48.428;9.964;2022-08-11T15:54:02;5.35;;;1.42;;
67896;SDS011;54698;48.428;9.964;2022-08-11T15:56:34;3.30;;;1.13;;
67896;SDS011;54698;48.428;9.964;2022-08-11T15:59:03;2.55;;;1.00;;
67896;SDS011;54698;48.428;9.964;2022-08-11T16:01:30;4.65;;;1.13;;
67896;SDS011;54698;48.428;9.964;2022-08-11T16:03:59;3.50;;;1.08;;
67896;SDS011;54698;48.428;9.964;2022-08-11T16:06:30;3.17;;;1.13;;
67896;SDS011;54698;48.428;9.964;2022-08-11T16:08:58;3.25;;;1.02;;